createdAt,value
2023-05-08T00:03:47.109Z,39.42
2023-05-08T00:08:48.727Z,39.54
2023-05-08T00:13:50.299Z,39.60
2023-05-08T00:18:53.516Z,39.72
2023-05-08T00:23:55.043Z,39.98
2023-05-08T00:28:56.616Z,39.94
2023-05-08T00:33:58.195Z,39.71
2023-05-08T00:38:59.846Z,39.94
2023-05-08T00:44:01.401Z,40.10
2023-05-08T00:49:05.690Z,40.19
2023-05-08T00:54:07.382Z,40.26
2023-05-08T00:59:11.647Z,40.23
2023-05-08T01:04:14.453Z,40.33
2023-05-08T01:09:16.007Z,40.26
2023-05-08T01:14:25.251Z,40.42
2023-05-08T01:19:46.215Z,40.52
2023-05-08T01:25:41.934Z,40.73
2023-05-08T01:30:58.573Z,40.87
2023-05-08T01:36:11.796Z,40.82
2023-05-08T01:41:18.403Z,40.84
2023-05-08T01:46:25.267Z,40.95
2023-05-08T01:51:31.441Z,40.90
2023-05-08T01:56:35.401Z,41.12
2023-05-08T02:01:37.007Z,41.23
2023-05-08T02:06:39.946Z,41.29
2023-05-08T02:11:43.920Z,41.43
2023-05-08T02:16:48.409Z,41.40
2023-05-08T02:21:50.934Z,41.52
2023-05-08T02:26:55.813Z,41.46
2023-05-08T02:31:58.257Z,41.58
2023-05-08T02:37:00.758Z,41.68
2023-05-08T02:42:04.003Z,41.70
2023-05-08T02:47:17.955Z,41.80
2023-05-08T02:52:35.077Z,41.92
2023-05-08T02:57:47.172Z,42.19
2023-05-08T03:03:00.774Z,42.09
2023-05-08T03:08:16.211Z,42.38
2023-05-08T03:13:19.666Z,42.33
2023-05-08T03:18:26.910Z,42.45
2023-05-08T03:23:33.108Z,42.47
2023-05-08T03:28:35.923Z,42.69
2023-05-08T03:33:39.016Z,42.68
2023-05-08T03:38:40.656Z,42.65
2023-05-08T03:43:43.884Z,42.63
2023-05-08T03:48:47.623Z,42.80
2023-05-08T03:53:49.452Z,42.79
2023-05-08T03:58:56.960Z,43.00
2023-05-08T04:04:10.286Z,42.93
2023-05-08T04:09:20.314Z,42.98
2023-05-08T04:14:26.321Z,42.84
2023-05-08T04:19:33.318Z,43.11
2023-05-08T04:24:40.604Z,43.28
2023-05-08T04:29:42.669Z,43.24
2023-05-08T04:34:44.878Z,43.09
2023-05-08T04:39:50.971Z,43.27
2023-05-08T04:44:53.572Z,43.23
2023-05-08T04:49:55.913Z,43.28
2023-05-08T04:54:57.668Z,43.54
2023-05-08T04:59:59.402Z,43.51
2023-05-08T05:05:02.078Z,43.33
2023-05-08T05:10:05.005Z,43.52
2023-05-08T05:15:08.598Z,43.77
2023-05-08T05:20:13.290Z,43.51
2023-05-08T05:25:15.193Z,43.82
2023-05-08T05:30:17.044Z,43.76
2023-05-08T05:35:18.998Z,43.79
2023-05-08T05:40:21.384Z,43.83
2023-05-08T05:45:22.965Z,43.59
2023-05-08T05:50:27.080Z,43.66
2023-05-08T05:55:30.048Z,43.70
2023-05-08T06:00:33.119Z,43.73
2023-05-08T06:05:36.084Z,43.69
2023-05-08T06:10:37.686Z,43.72
2023-05-08T06:15:40.065Z,43.83
2023-05-08T06:20:42.188Z,44.00
2023-05-08T06:25:44.471Z,43.88
2023-05-08T06:30:46.091Z,43.78
2023-05-08T06:35:48.469Z,43.80
2023-05-08T06:40:50.784Z,44.03
2023-05-08T06:45:53.241Z,43.94
2023-05-08T06:50:55.398Z,44.01
2023-05-08T06:56:00.374Z,44.12
2023-05-08T07:01:02.350Z,43.96
2023-05-08T07:06:04.690Z,43.83
2023-05-08T07:11:06.245Z,44.19
2023-05-08T07:16:10.971Z,44.23
2023-05-08T07:21:12.568Z,44.39
2023-05-08T07:26:14.547Z,44.43
2023-05-08T07:31:17.080Z,44.53
2023-05-08T07:36:18.639Z,44.61
2023-05-08T07:41:21.093Z,44.09
2023-05-08T07:46:22.749Z,44.07
2023-05-08T07:51:25.051Z,43.49
2023-05-08T07:56:27.513Z,43.59
2023-05-08T08:01:29.150Z,43.38
2023-05-08T08:06:31.692Z,42.93
2023-05-08T08:11:33.488Z,43.15
2023-05-08T08:16:35.036Z,43.22
2023-05-08T08:21:37.096Z,43.28
2023-05-08T08:26:38.581Z,43.12
2023-05-08T08:31:41.137Z,42.98
2023-05-08T08:36:43.432Z,42.80
2023-05-08T08:41:45.510Z,42.88
2023-05-08T08:46:53.637Z,43.03
2023-05-08T08:51:59.281Z,42.34
2023-05-08T08:57:05.216Z,42.28
2023-05-08T09:02:11.576Z,42.20
2023-05-08T09:07:13.481Z,42.13
2023-05-08T09:12:15.171Z,41.93
2023-05-08T09:17:17.387Z,42.00
2023-05-08T09:22:20.090Z,41.74
2023-05-08T09:27:22.915Z,41.71
2023-05-08T09:32:24.458Z,41.33
2023-05-08T09:37:27.386Z,41.47
2023-05-08T09:42:37.943Z,41.23
2023-05-08T09:47:48.425Z,41.09
2023-05-08T09:52:50.828Z,41.07
2023-05-08T09:58:00.129Z,41.30
2023-05-08T10:03:04.299Z,41.65
2023-05-08T10:08:21.176Z,41.58
2023-05-08T10:13:23.186Z,41.35
2023-05-08T10:18:30.258Z,41.54
2023-05-08T10:23:34.473Z,40.56
2023-05-08T10:28:42.465Z,40.91
2023-05-08T10:33:47.061Z,40.64
2023-05-08T10:38:50.420Z,40.39
2023-05-08T10:43:52.070Z,40.21
2023-05-08T10:49:09.213Z,39.95
2023-05-08T10:54:27.912Z,39.72
2023-05-08T10:59:35.948Z,39.04
2023-05-08T11:04:39.877Z,39.28
2023-05-08T11:09:42.026Z,39.30
2023-05-08T11:14:53.217Z,38.16
2023-05-08T11:20:13.093Z,38.08
2023-05-08T11:25:14.860Z,38.20
2023-05-08T11:30:20.427Z,38.30
2023-05-08T11:35:50.907Z,37.71
2023-05-08T11:41:01.496Z,38.05
2023-05-08T11:46:22.220Z,37.92
2023-05-08T11:51:23.794Z,37.85
2023-05-08T11:56:26.633Z,37.77
2023-05-08T12:01:35.202Z,37.62
2023-05-08T12:06:38.736Z,37.40
2023-05-08T12:11:44.037Z,37.78
2023-05-08T12:16:46.435Z,37.65
2023-05-08T12:21:48.970Z,37.35
2023-05-08T12:26:55.992Z,37.67
2023-05-08T12:31:58.421Z,37.84
2023-05-08T12:37:04.380Z,37.70
2023-05-08T12:42:06.341Z,37.63
2023-05-08T12:47:08.369Z,37.34
2023-05-08T12:52:13.775Z,37.71
2023-05-08T12:57:17.119Z,37.46
2023-05-08T13:02:24.222Z,37.68
2023-05-08T13:07:31.978Z,37.62
2023-05-08T13:12:34.109Z,37.45
2023-05-08T13:17:35.917Z,37.98
2023-05-08T13:22:37.431Z,37.36
2023-05-08T13:27:38.897Z,37.57
2023-05-08T13:32:41.311Z,37.77
2023-05-08T13:37:43.107Z,37.81
2023-05-08T13:42:44.642Z,37.55
2023-05-08T13:47:47.566Z,37.66
2023-05-08T13:52:49.684Z,37.31
2023-05-08T13:57:52.126Z,37.60
2023-05-08T14:02:53.719Z,37.69
2023-05-08T14:07:55.253Z,37.28
2023-05-08T14:12:56.835Z,37.07
2023-05-08T14:17:58.429Z,37.20
2023-05-08T14:23:00.395Z,37.46
2023-05-08T14:28:02.430Z,37.65
2023-05-08T14:33:03.983Z,36.98
2023-05-08T14:38:06.402Z,36.73
2023-05-08T14:43:08.492Z,36.51
2023-05-08T14:48:10.216Z,36.92
2023-05-08T14:53:11.873Z,37.52
2023-05-08T14:58:13.441Z,37.30
2023-05-08T15:03:15.025Z,37.04
2023-05-08T15:08:16.703Z,37.15
2023-05-08T15:13:19.386Z,37.14
2023-05-08T15:18:20.894Z,36.97
2023-05-08T15:23:22.423Z,36.90
2023-05-08T15:28:23.976Z,37.01
2023-05-08T15:33:25.767Z,36.64
2023-05-08T15:38:27.647Z,36.40
2023-05-08T15:43:29.210Z,36.92
2023-05-08T15:48:30.801Z,37.00
2023-05-08T15:53:33.014Z,36.86
2023-05-08T15:58:36.587Z,36.90
2023-05-08T16:03:38.246Z,36.70
2023-05-08T16:08:39.996Z,36.58
2023-05-08T16:13:41.709Z,36.73
2023-05-08T16:18:43.317Z,36.83
2023-05-08T16:23:44.891Z,36.93
2023-05-08T16:28:46.532Z,36.61
2023-05-08T16:33:48.158Z,37.21
2023-05-08T16:38:49.676Z,37.25
2023-05-08T16:43:51.173Z,37.15
2023-05-08T16:48:52.679Z,37.47
2023-05-08T16:53:56.030Z,37.46
2023-05-08T16:58:59.030Z,36.94
2023-05-08T17:04:00.848Z,36.44
2023-05-08T17:09:03.202Z,36.29
2023-05-08T17:14:04.826Z,36.09
2023-05-08T17:19:06.409Z,35.78
2023-05-08T17:24:08.342Z,35.56
2023-05-08T17:29:10.012Z,35.40
2023-05-08T17:34:11.601Z,35.52
2023-05-08T17:39:13.170Z,36.25
2023-05-08T17:44:15.288Z,36.08
2023-05-08T17:49:19.284Z,36.18
2023-05-08T17:54:21.215Z,36.51
2023-05-08T17:59:22.773Z,36.27
2023-05-08T18:04:24.336Z,36.23
2023-05-08T18:09:25.911Z,36.29
2023-05-08T18:14:34.007Z,36.46
2023-05-08T18:19:35.730Z,36.45
2023-05-08T18:24:37.302Z,36.60
2023-05-08T18:29:38.871Z,36.33
2023-05-08T18:34:41.006Z,36.52
2023-05-08T18:39:42.769Z,36.86
2023-05-08T18:44:44.379Z,36.77
2023-05-08T18:49:45.974Z,36.69
2023-05-08T18:54:48.231Z,36.80
2023-05-08T18:59:50.355Z,36.88
2023-05-08T19:04:51.919Z,37.03
2023-05-08T19:09:55.371Z,37.34
2023-05-08T19:14:56.888Z,37.37
2023-05-08T19:19:58.389Z,37.35
2023-05-08T19:24:59.928Z,37.85
2023-05-08T19:30:02.097Z,37.86
2023-05-08T19:35:04.724Z,37.93
2023-05-08T19:40:06.837Z,37.75
2023-05-08T19:45:10.189Z,37.32
2023-05-08T19:50:17.717Z,37.04
2023-05-08T19:55:19.351Z,36.90
2023-05-08T20:00:20.967Z,37.01
2023-05-08T20:05:23.426Z,37.13
2023-05-08T20:10:25.101Z,37.03
2023-05-08T20:15:26.746Z,37.06
2023-05-08T20:20:29.699Z,37.05
2023-05-08T20:25:31.424Z,37.17
2023-05-08T20:30:33.013Z,36.98
2023-05-08T20:35:35.349Z,37.16
2023-05-08T20:40:37.052Z,37.22
2023-05-08T20:45:38.812Z,37.18
2023-05-08T20:50:40.442Z,37.19
2023-05-08T20:55:42.024Z,37.34
2023-05-08T21:00:43.537Z,37.33
2023-05-08T21:05:45.197Z,37.24
2023-05-08T21:10:46.745Z,37.30
2023-05-08T21:15:50.277Z,37.26
2023-05-08T21:20:51.814Z,37.20
2023-05-08T21:25:53.445Z,37.27
2023-05-08T21:30:54.940Z,36.87
2023-05-08T21:35:56.535Z,37.31
2023-05-08T21:41:05.233Z,37.28
2023-05-08T21:46:09.104Z,37.51
2023-05-08T21:51:10.730Z,37.25
2023-05-08T21:56:12.271Z,37.29
2023-05-08T22:01:13.796Z,37.33
2023-05-08T22:06:15.368Z,37.26
2023-05-08T22:11:16.887Z,37.70
2023-05-08T22:16:18.468Z,37.49
2023-05-08T22:21:20.097Z,37.51
2023-05-08T22:26:22.483Z,38.03
2023-05-08T22:31:24.059Z,38.10
2023-05-08T22:36:25.738Z,38.18
2023-05-08T22:41:29.417Z,38.28
2023-05-08T22:46:33.504Z,38.32
2023-05-08T22:51:36.065Z,38.58
2023-05-08T22:56:38.154Z,38.87
2023-05-08T23:01:40.005Z,39.07
2023-05-08T23:06:41.692Z,39.24
2023-05-08T23:11:43.235Z,39.52
2023-05-08T23:16:44.755Z,39.62
2023-05-08T23:21:46.353Z,39.71
2023-05-08T23:26:49.574Z,39.78
2023-05-08T23:31:51.337Z,40.05
2023-05-08T23:36:53.012Z,40.20
2023-05-08T23:41:54.550Z,40.13
2023-05-08T23:46:56.101Z,40.13
2023-05-08T23:51:57.620Z,40.60
2023-05-08T23:56:59.137Z,40.50
